createdAt,value
2023-05-22T00:02:33.393Z,95.56
2023-05-22T00:05:39.189Z,95.75
2023-05-22T00:08:41.593Z,95.26
2023-05-22T00:11:44.075Z,95.06
2023-05-22T00:14:46.610Z,95.46
2023-05-22T00:17:48.956Z,95.17
2023-05-22T00:20:52.172Z,95.50
2023-05-22T00:23:54.582Z,95.14
2023-05-22T00:26:56.805Z,94.78
2023-05-22T00:29:59.491Z,95.42
2023-05-22T00:33:02.679Z,95.32
2023-05-22T00:36:05.945Z,95.50
2023-05-22T00:39:09.995Z,96.08
2023-05-22T00:42:12.799Z,95.69
2023-05-22T00:45:15.896Z,96.33
2023-05-22T00:48:18.510Z,95.74
2023-05-22T00:51:24.739Z,96.48
2023-05-22T00:54:28.802Z,96.09
2023-05-22T00:57:34.120Z,96.29
2023-05-22T01:00:37.888Z,96.34
2023-05-22T01:03:45.932Z,96.41
2023-05-22T01:06:48.628Z,96.21
2023-05-22T01:09:52.973Z,96.16
2023-05-22T01:13:13.797Z,96.21
2023-05-22T01:16:30.920Z,96.32
2023-05-22T01:19:54.376Z,96.16
2023-05-22T01:23:16.421Z,96.37
2023-05-22T01:26:43.186Z,96.50
2023-05-22T01:30:04.738Z,95.85
2023-05-22T01:33:08.934Z,95.97
2023-05-22T01:36:14.999Z,96.51
2023-05-22T01:39:18.873Z,96.72
2023-05-22T01:42:21.350Z,96.80
2023-05-22T01:45:24.290Z,96.69
2023-05-22T01:48:26.545Z,96.44
2023-05-22T01:51:50.081Z,96.53
2023-05-22T01:54:58.731Z,96.51
2023-05-22T01:58:15.008Z,96.87
2023-05-22T02:01:20.276Z,96.66
2023-05-22T02:04:23.727Z,96.34
2023-05-22T02:07:26.721Z,96.36
2023-05-22T02:10:31.801Z,96.79
2023-05-22T02:13:34.658Z,96.69
2023-05-22T02:16:38.531Z,96.29
2023-05-22T02:19:41.404Z,96.59
2023-05-22T02:22:47.329Z,95.89
2023-05-22T02:25:49.705Z,95.80
2023-05-22T02:28:52.374Z,95.95
2023-05-22T02:31:55.172Z,95.85
2023-05-22T02:34:59.628Z,96.60
2023-05-22T02:38:03.008Z,96.53
2023-05-22T02:41:05.848Z,96.76
2023-05-22T02:44:08.024Z,96.76
2023-05-22T02:47:10.935Z,97.30
2023-05-22T02:50:13.407Z,97.28
2023-05-22T02:53:15.988Z,96.79
2023-05-22T02:56:19.139Z,97.17
2023-05-22T02:59:21.333Z,97.13
2023-05-22T03:02:28.968Z,97.17
2023-05-22T03:05:31.994Z,96.56
2023-05-22T03:08:35.126Z,96.23
2023-05-22T03:11:37.885Z,96.41
2023-05-22T03:14:40.064Z,96.56
2023-05-22T03:17:42.423Z,96.56
2023-05-22T03:20:44.661Z,96.61
2023-05-22T03:23:47.574Z,95.80
2023-05-22T03:26:49.916Z,95.49
2023-05-22T03:30:00.733Z,95.99
2023-05-22T03:33:04.794Z,96.55
2023-05-22T03:36:08.054Z,96.47
2023-05-22T03:39:11.012Z,96.29
2023-05-22T03:42:19.529Z,96.19
2023-05-22T03:45:22.266Z,96.60
2023-05-22T03:48:24.521Z,96.61
2023-05-22T03:51:26.960Z,97.05
2023-05-22T03:54:29.655Z,96.98
2023-05-22T03:57:31.945Z,97.12
2023-05-22T04:00:35.054Z,97.18
2023-05-22T04:03:38.068Z,96.88
2023-05-22T04:06:43.720Z,96.64
2023-05-22T04:09:48.289Z,97.06
2023-05-22T04:12:51.101Z,96.76
2023-05-22T04:15:53.974Z,97.02
2023-05-22T04:18:56.720Z,96.97
2023-05-22T04:21:59.482Z,97.23
2023-05-22T04:25:01.772Z,96.79
2023-05-22T04:28:04.354Z,97.23
2023-05-22T04:31:06.978Z,97.29
2023-05-22T04:34:13.086Z,97.26
2023-05-22T04:37:15.538Z,97.67
2023-05-22T04:40:17.756Z,97.94
2023-05-22T04:43:20.587Z,98.02
2023-05-22T04:46:23.080Z,97.79
2023-05-22T04:49:26.608Z,97.86
2023-05-22T04:52:28.884Z,97.41
2023-05-22T04:55:35.202Z,97.61
2023-05-22T04:58:38.200Z,97.72
2023-05-22T05:01:41.411Z,97.76
2023-05-22T05:04:43.850Z,98.03
2023-05-22T05:07:50.086Z,97.75
2023-05-22T05:10:53.077Z,98.09
2023-05-22T05:13:55.395Z,97.70
2023-05-22T05:16:58.943Z,97.94
2023-05-22T05:20:01.270Z,97.99
2023-05-22T05:23:03.658Z,98.18
2023-05-22T05:26:06.142Z,97.94
2023-05-22T05:29:08.325Z,98.01
2023-05-22T05:32:18.445Z,97.80
2023-05-22T05:35:24.191Z,98.02
2023-05-22T05:38:37.551Z,98.08
2023-05-22T05:41:40.486Z,97.92
2023-05-22T05:44:44.796Z,97.78
2023-05-22T05:47:47.925Z,97.80
2023-05-22T05:50:50.870Z,98.47
2023-05-22T05:53:54.050Z,98.63
2023-05-22T05:56:56.422Z,98.20
2023-05-22T06:03:23.234Z,98.31
2023-05-22T06:06:36.637Z,98.63
2023-05-22T06:09:51.203Z,98.40
2023-05-22T06:13:11.989Z,98.67
2023-05-22T06:16:16.255Z,98.94
2023-05-22T06:19:18.692Z,98.80
2023-05-22T06:22:21.550Z,99.14
2023-05-22T06:25:30.406Z,98.51
2023-05-22T06:28:33.879Z,98.44
2023-05-22T06:31:38.770Z,97.23
2023-05-22T06:34:44.587Z,96.63
2023-05-22T06:37:47.994Z,95.39
2023-05-22T06:40:50.434Z,94.63
2023-05-22T06:43:57.278Z,93.81
2023-05-22T06:47:03.948Z,93.52
2023-05-22T06:50:07.448Z,93.19
2023-05-22T06:53:10.390Z,92.13
2023-05-22T06:56:13.475Z,90.27
2023-05-22T06:59:48.069Z,89.59
2023-05-22T07:03:23.067Z,88.99
2023-05-22T07:06:48.863Z,87.52
2023-05-22T07:09:51.398Z,87.19
2023-05-22T07:12:54.285Z,86.36
2023-05-22T07:15:56.740Z,86.07
2023-05-22T07:18:59.619Z,86.31
2023-05-22T07:22:02.948Z,84.23
2023-05-22T07:25:07.831Z,83.10
2023-05-22T07:28:11.015Z,83.12
2023-05-22T07:31:23.736Z,83.10
2023-05-22T07:34:34.420Z,81.52
2023-05-22T07:37:39.663Z,80.52
2023-05-22T07:40:41.841Z,80.04
2023-05-22T07:43:44.181Z,78.67
2023-05-22T07:46:50.317Z,79.10
2023-05-22T07:49:56.154Z,77.43
2023-05-22T07:52:59.182Z,76.10
2023-05-22T07:56:01.580Z,76.43
2023-05-22T07:59:05.941Z,76.52
2023-05-22T08:02:10.271Z,77.50
2023-05-22T08:05:12.719Z,75.75
2023-05-22T08:08:15.015Z,72.27
2023-05-22T08:11:17.256Z,69.28
2023-05-22T08:14:23.205Z,73.08
2023-05-22T08:17:25.564Z,69.50
2023-05-22T08:20:28.173Z,72.10
2023-05-22T08:23:30.494Z,72.55
2023-05-22T08:26:34.064Z,70.81
2023-05-22T08:29:36.832Z,68.42
2023-05-22T08:32:39.450Z,69.03
2023-05-22T08:35:41.776Z,64.15
2023-05-22T08:38:44.013Z,61.71
2023-05-22T08:41:47.821Z,61.47
2023-05-22T08:44:50.626Z,60.26
2023-05-22T08:47:55.665Z,64.78
2023-05-22T08:51:04.546Z,59.36
2023-05-22T08:54:13.403Z,59.94
2023-05-22T08:57:16.806Z,62.16
2023-05-22T09:00:21.779Z,64.50
2023-05-22T09:03:28.844Z,62.02
2023-05-22T09:06:32.142Z,60.44
2023-05-22T09:09:40.349Z,57.84
2023-05-22T09:13:08.313Z,56.66
2023-05-22T09:16:12.717Z,57.50
2023-05-22T09:19:15.483Z,58.46
2023-05-22T09:22:19.032Z,57.19
2023-05-22T09:25:21.932Z,58.82
2023-05-22T09:28:24.984Z,55.58
2023-05-22T09:31:32.109Z,53.03
2023-05-22T09:34:34.362Z,54.98
2023-05-22T09:37:37.457Z,62.64
2023-05-22T09:40:42.428Z,59.36
2023-05-22T09:43:51.589Z,58.32
2023-05-22T09:46:55.026Z,57.74
2023-05-22T09:49:59.017Z,55.54
2023-05-22T09:53:06.070Z,56.31
2023-05-22T09:56:14.727Z,54.47
2023-05-22T09:59:22.693Z,59.15
2023-05-22T10:02:26.942Z,55.74
2023-05-22T10:05:32.424Z,51.95
2023-05-22T10:08:42.670Z,51.09
2023-05-22T10:11:47.091Z,52.33
2023-05-22T10:14:49.425Z,51.98
2023-05-22T10:17:52.223Z,56.12
2023-05-22T10:20:55.465Z,60.13
2023-05-22T10:23:59.928Z,54.65
2023-05-22T10:27:03.035Z,53.71
2023-05-22T10:30:18.268Z,60.28
2023-05-22T10:33:47.462Z,55.36
2023-05-22T10:37:25.112Z,57.33
2023-05-22T10:40:32.649Z,56.89
2023-05-22T10:43:39.864Z,59.15
2023-05-22T10:46:49.966Z,51.99
2023-05-22T10:50:09.854Z,50.97
2023-05-22T10:53:32.743Z,50.71
2023-05-22T10:56:36.200Z,51.40
2023-05-22T10:59:38.618Z,52.13
2023-05-22T11:02:45.135Z,50.71
2023-05-22T11:05:54.697Z,48.16
2023-05-22T11:09:00.320Z,45.87
2023-05-22T11:12:24.877Z,47.29
2023-05-22T11:15:33.113Z,47.92
2023-05-22T11:18:35.577Z,48.08
2023-05-22T11:21:45.384Z,49.25
2023-05-22T11:24:47.624Z,48.37
2023-05-22T11:27:49.888Z,45.40
2023-05-22T11:30:53.281Z,47.05
2023-05-22T11:33:55.534Z,46.10
2023-05-22T11:37:00.239Z,44.71
2023-05-22T11:40:05.992Z,45.33
2023-05-22T11:43:08.340Z,45.96
2023-05-22T11:46:12.620Z,44.60
2023-05-22T11:49:14.915Z,42.60
2023-05-22T11:52:17.687Z,44.15
2023-05-22T11:55:20.419Z,45.16
2023-05-22T11:58:27.923Z,46.84
2023-05-22T12:01:30.111Z,46.39
2023-05-22T12:04:34.059Z,45.36
2023-05-22T12:07:36.510Z,47.31
2023-05-22T12:10:39.018Z,48.68
2023-05-22T12:13:41.658Z,45.90
2023-05-22T12:16:44.876Z,44.87
2023-05-22T12:19:48.062Z,46.53
2023-05-22T12:22:50.353Z,45.93
2023-05-22T12:26:09.573Z,44.53
2023-05-22T12:29:12.513Z,42.29
2023-05-22T12:32:14.948Z,43.88
2023-05-22T12:35:18.188Z,44.32
2023-05-22T12:38:28.502Z,45.13
2023-05-22T12:41:31.387Z,44.76
2023-05-22T12:44:33.789Z,41.96
2023-05-22T12:47:36.191Z,46.33
2023-05-22T12:50:38.472Z,46.18
2023-05-22T12:53:40.890Z,42.11
2023-05-22T12:56:43.663Z,43.06
2023-05-22T12:59:45.966Z,41.24
2023-05-22T13:02:48.258Z,41.80
2023-05-22T13:05:50.590Z,44.21
2023-05-22T13:08:53.471Z,43.71
2023-05-22T13:11:55.982Z,43.97
2023-05-22T13:14:59.335Z,47.63
2023-05-22T13:18:02.144Z,47.17
2023-05-22T13:21:04.532Z,43.01
2023-05-22T13:24:06.863Z,45.69
2023-05-22T13:27:09.073Z,48.26
2023-05-22T13:30:11.707Z,50.83
2023-05-22T13:33:14.039Z,52.40
2023-05-22T13:36:16.522Z,54.89
2023-05-22T13:39:18.688Z,48.91
2023-05-22T13:42:21.103Z,52.25
2023-05-22T13:45:23.375Z,53.63
2023-05-22T13:48:25.508Z,54.49
2023-05-22T13:51:27.945Z,52.36
2023-05-22T13:54:30.459Z,52.28
2023-05-22T13:57:32.661Z,53.40
2023-05-22T14:00:34.878Z,54.46
2023-05-22T14:03:37.265Z,54.02
2023-05-22T14:06:39.714Z,54.25
2023-05-22T14:09:43.992Z,54.94
2023-05-22T14:12:46.770Z,56.12
2023-05-22T14:15:49.438Z,55.53
2023-05-22T14:18:52.196Z,51.83
2023-05-22T14:21:54.494Z,54.62
2023-05-22T14:24:57.151Z,54.57
2023-05-22T14:27:59.538Z,55.24
2023-05-22T14:31:01.975Z,56.99
2023-05-22T14:34:04.172Z,57.53
2023-05-22T14:37:06.902Z,56.13
2023-05-22T14:40:11.641Z,54.28
2023-05-22T14:43:14.494Z,55.92
2023-05-22T14:46:17.172Z,55.66
2023-05-22T14:49:19.972Z,56.44
2023-05-22T14:52:24.568Z,56.36
2023-05-22T14:55:28.752Z,56.60
2023-05-22T14:58:33.101Z,57.75
2023-05-22T15:01:39.276Z,58.90
2023-05-22T15:04:41.942Z,58.71
2023-05-22T15:07:46.702Z,60.04
2023-05-22T15:10:50.093Z,60.50
2023-05-22T15:13:54.439Z,60.59
2023-05-22T15:17:00.274Z,59.56
2023-05-22T15:20:05.702Z,61.21
2023-05-22T15:23:08.062Z,61.36
2023-05-22T15:26:10.427Z,59.66
2023-05-22T15:29:13.394Z,60.08
2023-05-22T15:32:15.668Z,58.09
2023-05-22T15:35:18.681Z,56.82
2023-05-22T15:38:21.566Z,56.07
2023-05-22T15:41:23.917Z,56.04
2023-05-22T15:44:26.150Z,55.90
2023-05-22T15:47:30.474Z,54.15
2023-05-22T15:50:33.934Z,54.78
2023-05-22T15:53:36.326Z,56.77
2023-05-22T15:56:38.777Z,57.10
2023-05-22T15:59:41.531Z,57.48
2023-05-22T16:02:44.565Z,57.84
2023-05-22T16:05:47.326Z,57.73
2023-05-22T16:08:49.935Z,58.36
2023-05-22T16:11:52.596Z,58.25
2023-05-22T16:15:00.325Z,57.62
2023-05-22T16:18:05.813Z,56.93
2023-05-22T16:21:09.042Z,57.41
2023-05-22T16:24:11.857Z,57.17
2023-05-22T16:27:14.878Z,57.97
2023-05-22T16:30:18.482Z,58.67
2023-05-22T16:33:24.068Z,59.82
2023-05-22T16:36:28.615Z,59.88
2023-05-22T16:39:31.205Z,59.27
2023-05-22T16:42:33.913Z,58.84
2023-05-22T16:45:36.778Z,59.16
2023-05-22T16:48:39.481Z,59.42
2023-05-22T16:51:41.612Z,60.01
2023-05-22T16:54:43.829Z,60.38
2023-05-22T16:57:46.438Z,60.66
2023-05-22T17:00:48.825Z,60.82
2023-05-22T17:03:53.132Z,61.66
2023-05-22T17:06:56.995Z,62.69
2023-05-22T17:10:02.095Z,64.61
2023-05-22T17:13:06.129Z,65.79
2023-05-22T17:16:12.271Z,66.01
2023-05-22T17:19:14.681Z,66.92
2023-05-22T17:22:17.079Z,67.85
2023-05-22T17:25:19.258Z,68.14
2023-05-22T17:28:21.669Z,68.62
2023-05-22T17:31:24.038Z,68.52
2023-05-22T17:34:26.273Z,69.76
2023-05-22T17:37:28.558Z,70.82
2023-05-22T17:40:43.029Z,71.97
2023-05-22T17:43:47.191Z,72.25
2023-05-22T17:46:49.833Z,73.47
2023-05-22T17:49:52.113Z,73.55
2023-05-22T17:52:54.386Z,73.72
2023-05-22T17:55:56.621Z,74.21
2023-05-22T17:58:59.380Z,74.04
2023-05-22T18:02:01.830Z,74.13
2023-05-22T18:05:05.655Z,75.60
2023-05-22T18:08:07.892Z,76.19
2023-05-22T18:11:11.071Z,76.23
2023-05-22T18:14:13.455Z,76.33
2023-05-22T18:17:16.393Z,76.52
2023-05-22T18:20:18.823Z,77.15
2023-05-22T18:23:21.102Z,78.26
2023-05-22T18:26:23.355Z,78.83
2023-05-22T18:29:25.587Z,78.87
2023-05-22T18:32:27.964Z,79.16
2023-05-22T18:35:30.432Z,79.32
2023-05-22T18:38:32.815Z,79.58
2023-05-22T18:41:37.282Z,80.63
2023-05-22T18:44:39.544Z,80.37
2023-05-22T18:47:41.782Z,80.62
2023-05-22T18:50:44.281Z,81.23
2023-05-22T18:53:47.003Z,81.59
2023-05-22T18:56:50.252Z,81.86
2023-05-22T18:59:53.597Z,81.97
2023-05-22T19:02:56.136Z,82.25
2023-05-22T19:05:58.461Z,82.61
2023-05-22T19:09:00.952Z,82.28
2023-05-22T19:12:03.377Z,82.54
2023-05-22T19:15:07.382Z,83.28
2023-05-22T19:18:09.992Z,83.67
2023-05-22T19:21:12.894Z,83.94
2023-05-22T19:24:15.246Z,83.91
2023-05-22T19:27:18.437Z,83.84
2023-05-22T19:30:22.371Z,83.62
2023-05-22T19:33:26.544Z,84.61
2023-05-22T19:36:29.405Z,85.26
2023-05-22T19:39:31.905Z,85.54
2023-05-22T19:42:35.101Z,85.36
2023-05-22T19:45:37.367Z,85.65
2023-05-22T19:48:39.743Z,85.37
2023-05-22T19:51:43.243Z,84.88
2023-05-22T19:54:45.580Z,85.36
2023-05-22T19:57:47.814Z,85.88
2023-05-22T20:00:49.997Z,86.00
2023-05-22T20:03:52.439Z,86.40
2023-05-22T20:06:54.798Z,86.17
2023-05-22T20:09:57.023Z,86.12
2023-05-22T20:12:59.622Z,86.12
2023-05-22T20:16:11.767Z,86.10
2023-05-22T20:19:15.085Z,86.41
2023-05-22T20:22:17.453Z,87.06
2023-05-22T20:25:23.331Z,87.60
2023-05-22T20:28:26.603Z,87.29
2023-05-22T20:31:28.886Z,87.42
2023-05-22T20:34:32.320Z,87.27
2023-05-22T20:37:35.284Z,87.07
2023-05-22T20:40:38.078Z,87.50
2023-05-22T20:43:43.572Z,88.09
2023-05-22T20:46:45.832Z,88.16
2023-05-22T20:49:48.044Z,88.25
2023-05-22T20:52:50.572Z,88.55
2023-05-22T20:55:53.522Z,88.74
2023-05-22T20:58:56.400Z,89.17
2023-05-22T21:01:58.900Z,88.89
2023-05-22T21:05:01.257Z,89.34
2023-05-22T21:08:03.474Z,89.69
2023-05-22T21:11:07.071Z,89.78
2023-05-22T21:14:09.543Z,90.07
2023-05-22T21:17:12.476Z,90.07
2023-05-22T21:20:14.861Z,90.21
2023-05-22T21:23:17.208Z,90.19
2023-05-22T21:26:22.450Z,90.25
2023-05-22T21:29:24.905Z,90.71
2023-05-22T21:32:27.232Z,90.91
2023-05-22T21:35:29.520Z,91.23
2023-05-22T21:38:31.898Z,91.53
2023-05-22T21:41:34.065Z,91.39
2023-05-22T21:44:36.273Z,91.83
2023-05-22T21:47:38.630Z,91.92
2023-05-22T21:50:41.034Z,92.09
2023-05-22T21:53:43.566Z,92.10
2023-05-22T21:56:46.196Z,92.48
2023-05-22T21:59:48.892Z,92.11
2023-05-22T22:02:51.219Z,92.39
2023-05-22T22:05:53.515Z,92.32
2023-05-22T22:08:58.138Z,92.44
2023-05-22T22:12:00.373Z,92.55
2023-05-22T22:15:02.740Z,92.24
2023-05-22T22:18:05.685Z,92.53
2023-05-22T22:21:08.581Z,93.00
2023-05-22T22:24:11.103Z,93.05
2023-05-22T22:27:13.537Z,92.81
2023-05-22T22:30:15.920Z,92.91
2023-05-22T22:33:18.788Z,92.73
2023-05-22T22:36:21.820Z,93.18
2023-05-22T22:39:24.121Z,93.43
2023-05-22T22:42:26.946Z,93.34
2023-05-22T22:45:29.154Z,93.26
2023-05-22T22:48:31.546Z,93.49
2023-05-22T22:51:34.836Z,93.85
2023-05-22T22:54:37.870Z,93.86
2023-05-22T22:57:43.459Z,93.63
2023-05-22T23:00:45.889Z,93.56
2023-05-22T23:03:48.231Z,93.99
2023-05-22T23:06:50.448Z,94.33
2023-05-22T23:09:52.720Z,93.86
2023-05-22T23:12:54.996Z,94.03
2023-05-22T23:15:57.980Z,94.00
2023-05-22T23:19:00.306Z,94.11
2023-05-22T23:22:02.584Z,94.33
2023-05-22T23:25:05.150Z,94.08
2023-05-22T23:28:10.293Z,93.68
2023-05-22T23:31:14.518Z,93.44
2023-05-22T23:34:18.000Z,94.04
2023-05-22T23:37:20.267Z,93.84
2023-05-22T23:40:22.509Z,93.84
2023-05-22T23:43:25.458Z,93.62
2023-05-22T23:46:27.727Z,93.80
2023-05-22T23:49:30.008Z,94.17
2023-05-22T23:52:32.670Z,94.54
2023-05-22T23:55:34.968Z,94.49
2023-05-22T23:58:40.449Z,94.64
